Terminal Aerodrome Forecast
Issued by NWS

Home | Current Version | Previous Version | Text Only | Print | Product List | Glossary On
Versions: 1 2 3 4 5 6 7 8 9 10 11 12 13 14 15 16 17 18
000
FTUS41 KALY 291721
TAFPSF
TAF
KPSF 291721Z 2918/3018 23006KT P6SM FEW050 SCT250
     FM300100 VRB03KT P6SM SKC
     FM300800 00000KT 3SM BR SCT006 BKN012
     FM301500 22005KT P6SM SCT015 BKN035
     FM301700 22008KT P6SM VCSH BKN040 OVC070=

USA.gov is the U.S. government's official web portal to all federal, state and local government web resources and services.